createdAt,value
2022-10-13T00:00:50.833Z,101629.75
2022-10-13T00:03:18.014Z,101628.47
2022-10-13T00:05:47.063Z,101617.00
2022-10-13T00:08:15.751Z,101623.81
2022-10-13T00:10:43.868Z,101616.31
2022-10-13T00:13:10.603Z,101627.22
2022-10-13T00:15:38.591Z,101622.03
2022-10-13T00:18:05.701Z,101619.81
2022-10-13T00:20:32.492Z,101627.75
2022-10-13T00:22:59.291Z,101629.06
2022-10-13T00:25:26.187Z,101621.94
2022-10-13T00:27:54.326Z,101613.97
2022-10-13T00:30:21.204Z,101621.44
2022-10-13T00:32:47.990Z,101623.72
2022-10-13T00:35:14.735Z,101611.88
2022-10-13T00:37:41.472Z,101614.91
2022-10-13T00:40:09.132Z,101607.97
2022-10-13T00:42:35.963Z,101609.16
2022-10-13T00:45:19.726Z,101612.69
2022-10-13T00:47:49.693Z,101607.19
2022-10-13T00:50:20.004Z,101605.06
2022-10-13T00:52:48.531Z,101606.38
2022-10-13T00:55:20.104Z,101599.94
2022-10-13T00:57:48.775Z,101603.22
2022-10-13T01:00:17.232Z,101607.81
2022-10-13T01:02:43.993Z,101611.31
2022-10-13T01:05:10.788Z,101609.00
2022-10-13T01:07:37.605Z,101608.84
2022-10-13T01:10:05.172Z,101620.47
2022-10-13T01:12:44.426Z,101605.38
2022-10-13T01:15:17.276Z,101605.47
2022-10-13T01:17:57.000Z,101598.94
2022-10-13T01:20:55.985Z,101603.84
2022-10-13T01:23:41.925Z,101601.16
2022-10-13T01:26:33.641Z,101597.03
2022-10-13T01:29:17.064Z,101605.38
2022-10-13T01:31:51.264Z,101592.81
2022-10-13T01:34:23.870Z,101588.47
2022-10-13T01:36:57.606Z,101585.91
2022-10-13T01:39:32.441Z,101589.66
2022-10-13T01:42:13.088Z,101580.97
2022-10-13T01:44:46.005Z,101579.69
2022-10-13T02:00:22.633Z,101551.47
2022-10-13T02:03:03.749Z,101542.03
2022-10-13T02:05:41.744Z,101546.50
2022-10-13T02:08:14.267Z,101532.69
2022-10-13T02:10:47.349Z,101530.78
2022-10-13T02:13:17.800Z,101528.34
2022-10-13T02:15:51.653Z,101529.88
2022-10-13T02:18:20.345Z,101535.97
2022-10-13T02:20:47.930Z,101535.38
2022-10-13T02:23:16.918Z,101529.75
2022-10-13T02:25:44.564Z,101523.53
2022-10-13T02:28:14.344Z,101535.50
2022-10-13T02:33:27.906Z,101535.63
2022-10-13T02:35:54.752Z,101532.94
2022-10-13T02:41:42.415Z,101530.94
2022-10-13T02:44:09.650Z,101526.50
2022-10-13T02:46:36.509Z,101519.56
2022-10-13T02:49:04.739Z,101522.97
2022-10-13T02:54:07.372Z,101524.84
2022-10-13T02:59:32.748Z,101522.03
2022-10-13T03:02:31.386Z,101519.22
2022-10-13T03:04:59.538Z,101521.22
2022-10-13T03:07:26.357Z,101517.56
2022-10-13T03:10:05.193Z,101518.66
2022-10-13T03:12:32.261Z,101511.97
2022-10-13T03:14:59.079Z,101513.97
2022-10-13T03:20:34.190Z,101513.03
2022-10-13T03:23:01.005Z,101513.38
2022-10-13T03:25:27.913Z,101515.59
2022-10-13T03:31:10.889Z,101516.28
2022-10-13T03:36:24.645Z,101502.19
2022-10-13T03:38:51.465Z,101495.56
2022-10-13T03:44:08.051Z,101472.38
2022-10-13T03:46:34.854Z,101466.59
2022-10-13T03:49:01.674Z,101460.13
2022-10-13T03:51:29.819Z,101461.22
2022-10-13T03:53:56.633Z,101468.75
2022-10-13T03:56:26.639Z,101476.22
2022-10-13T03:58:55.525Z,101481.38
2022-10-13T04:01:24.269Z,101473.03
2022-10-13T04:03:52.909Z,101468.13
2022-10-13T04:09:20.097Z,101467.19
2022-10-13T04:11:50.109Z,101464.03
2022-10-13T04:14:16.869Z,101465.56
2022-10-13T04:16:43.701Z,101465.09
2022-10-13T04:19:13.132Z,101465.66
2022-10-13T04:21:41.134Z,101464.84
2022-10-13T04:24:11.668Z,101462.97
2022-10-13T04:26:40.371Z,101459.44
2022-10-13T04:29:08.841Z,101469.06
2022-10-13T04:31:36.329Z,101469.56
2022-10-13T04:34:03.152Z,101465.09
2022-10-13T04:36:30.082Z,101471.53
2022-10-13T04:38:56.868Z,101465.78
2022-10-13T04:41:23.738Z,101465.19
2022-10-13T04:43:53.486Z,101458.16
2022-10-13T04:46:22.132Z,101460.63
2022-10-13T04:48:49.818Z,101456.16
2022-10-13T04:51:20.087Z,101448.34
2022-10-13T04:53:47.591Z,101451.50
2022-10-13T04:56:16.637Z,101453.25
2022-10-13T04:58:45.179Z,101445.88
2022-10-13T05:01:21.490Z,101445.75
2022-10-13T05:03:51.428Z,101432.88
2022-10-13T05:06:20.637Z,101437.91
2022-10-13T05:08:47.614Z,101431.81
2022-10-13T05:11:14.439Z,101433.44
2022-10-13T05:13:41.214Z,101432.88
2022-10-13T05:16:09.521Z,101427.13
2022-10-13T05:18:38.010Z,101431.25
2022-10-13T05:21:09.234Z,101419.28
2022-10-13T05:23:36.106Z,101421.75
2022-10-13T05:26:04.567Z,101414.63
2022-10-13T05:28:31.390Z,101417.31
2022-10-13T05:30:58.321Z,101422.44
2022-10-13T05:33:25.282Z,101425.16
2022-10-13T05:35:53.561Z,101417.31
2022-10-13T05:38:25.171Z,101414.72
2022-10-13T05:40:52.735Z,101414.50
2022-10-13T05:43:19.469Z,101418.00
2022-10-13T05:45:46.352Z,101418.72
2022-10-13T05:48:13.050Z,101415.56
2022-10-13T05:50:41.343Z,101409.22
2022-10-13T05:53:09.466Z,101404.91
2022-10-13T05:55:36.267Z,101405.00
2022-10-13T05:58:03.041Z,101392.47
2022-10-13T06:00:30.044Z,101392.38
2022-10-13T06:03:03.901Z,101391.78
2022-10-13T06:05:32.969Z,101393.66
2022-10-13T06:08:00.367Z,101393.53
2022-10-13T06:10:29.215Z,101389.34
2022-10-13T06:12:55.951Z,101387.78
2022-10-13T06:15:27.829Z,101385.09
2022-10-13T06:17:55.052Z,101397.88
2022-10-13T06:20:22.095Z,101395.63
2022-10-13T06:22:50.435Z,101397.41
2022-10-13T06:25:17.549Z,101399.50
2022-10-13T06:27:45.692Z,101399.88
2022-10-13T06:30:12.873Z,101391.56
2022-10-13T06:32:39.671Z,101392.97
2022-10-13T06:35:07.503Z,101392.84
2022-10-13T06:37:34.712Z,101394.16
2022-10-13T06:40:01.614Z,101396.69
2022-10-13T06:42:31.748Z,101406.53
2022-10-13T06:44:59.934Z,101401.59
2022-10-13T06:47:26.799Z,101396.44
2022-10-13T06:49:53.583Z,101398.78
2022-10-13T06:52:21.024Z,101398.09
2022-10-13T06:54:48.179Z,101397.38
2022-10-13T06:57:14.991Z,101386.94
2022-10-13T06:59:41.744Z,101397.28
2022-10-13T07:02:11.196Z,101390.00
2022-10-13T07:04:38.033Z,101399.81
2022-10-13T07:07:04.783Z,101396.66
2022-10-13T07:09:31.705Z,101391.28
2022-10-13T07:11:58.487Z,101396.06
2022-10-13T07:14:25.526Z,101399.09
2022-10-13T07:16:52.340Z,101400.38
2022-10-13T07:19:20.608Z,101397.72
2022-10-13T07:21:47.403Z,101400.63
2022-10-13T07:24:14.798Z,101396.53
2022-10-13T07:26:41.568Z,101397.00
2022-10-13T07:29:09.130Z,101393.56
2022-10-13T07:31:36.158Z,101392.22
2022-10-13T07:34:04.992Z,101393.47
2022-10-13T07:36:33.543Z,101395.25
2022-10-13T07:39:01.235Z,101392.63
2022-10-13T07:41:28.105Z,101392.63
2022-10-13T07:43:55.460Z,101390.09
2022-10-13T07:46:22.885Z,101390.56
2022-10-13T07:48:49.724Z,101386.47
2022-10-13T07:51:16.541Z,101388.44
2022-10-13T07:53:46.583Z,101387.84
2022-10-13T07:56:14.677Z,101396.16
2022-10-13T07:58:43.270Z,101392.75
2022-10-13T08:01:10.614Z,101395.72
2022-10-13T08:03:38.334Z,101395.81
2022-10-13T08:06:06.251Z,101391.72
2022-10-13T08:08:33.718Z,101394.75
2022-10-13T08:11:02.968Z,101391.94
2022-10-13T08:13:29.785Z,101399.16
2022-10-13T08:16:00.464Z,101387.31
2022-10-13T08:18:28.018Z,101394.44
2022-10-13T08:21:04.213Z,101381.31
2022-10-13T08:23:37.596Z,101379.31
2022-10-13T08:26:06.016Z,101377.53
2022-10-13T08:28:32.872Z,101378.03
2022-10-13T08:30:59.840Z,101374.78
2022-10-13T08:33:27.029Z,101366.97
2022-10-13T08:35:54.034Z,101364.50
2022-10-13T08:38:20.926Z,101362.53
2022-10-13T08:40:49.044Z,101365.53
2022-10-13T08:43:20.040Z,101371.00
2022-10-13T08:45:49.682Z,101366.75
2022-10-13T08:48:20.005Z,101363.28
2022-10-13T08:50:51.293Z,101365.38
2022-10-13T08:53:25.796Z,101371.38
2022-10-13T08:55:56.474Z,101361.69
2022-10-13T08:58:28.193Z,101363.44
2022-10-13T09:01:05.601Z,101366.97
2022-10-13T09:03:32.577Z,101372.69
2022-10-13T09:06:10.667Z,101373.00
2022-10-13T09:08:41.638Z,101375.75
2022-10-13T09:11:10.886Z,101377.59
2022-10-13T09:13:39.500Z,101379.72
2022-10-13T09:16:07.530Z,101376.09
2022-10-13T09:18:34.611Z,101378.88
2022-10-13T09:21:20.553Z,101377.81
2022-10-13T09:23:50.231Z,101368.59
2022-10-13T09:26:20.443Z,101370.03
2022-10-13T09:28:49.323Z,101378.56
2022-10-13T09:31:21.517Z,101379.19
2022-10-13T09:33:57.768Z,101373.06
2022-10-13T09:36:24.602Z,101370.66
2022-10-13T09:39:08.031Z,101374.44
2022-10-13T09:41:36.108Z,101374.34
2022-10-13T09:44:17.644Z,101372.16
2022-10-13T09:46:51.740Z,101360.28
2022-10-13T09:49:30.586Z,101371.09
2022-10-13T09:52:02.920Z,101365.22
2022-10-13T09:54:43.996Z,101364.06
2022-10-13T09:57:17.696Z,101353.31
2022-10-13T09:59:50.153Z,101356.53
2022-10-13T10:02:33.070Z,101354.13
2022-10-13T10:05:14.555Z,101357.19
2022-10-13T10:07:41.414Z,101363.25
2022-10-13T10:10:23.280Z,101365.47
2022-10-13T10:12:50.924Z,101364.25
2022-10-13T10:15:23.306Z,101362.09
2022-10-13T10:17:55.956Z,101365.00
2022-10-13T10:20:41.854Z,101355.53
2022-10-13T10:23:14.574Z,101360.50
2022-10-13T10:25:44.932Z,101363.66
2022-10-13T10:28:38.408Z,101364.34
2022-10-13T10:31:18.747Z,101363.91
2022-10-13T10:33:56.171Z,101369.16
2022-10-13T10:36:27.327Z,101365.97
2022-10-13T10:39:00.197Z,101360.31
2022-10-13T10:41:41.281Z,101364.09
2022-10-13T10:44:11.495Z,101362.75
2022-10-13T10:46:44.430Z,101364.31
2022-10-13T10:49:18.130Z,101357.06
2022-10-13T10:51:45.631Z,101361.00
2022-10-13T10:54:27.551Z,101369.63
2022-10-13T10:56:58.488Z,101362.88
2022-10-13T10:59:37.029Z,101355.84
2022-10-13T11:02:19.544Z,101364.41
2022-10-13T11:04:48.575Z,101358.31
2022-10-13T11:07:55.068Z,101357.56
2022-10-13T11:10:22.780Z,101360.00
2022-10-13T11:13:22.407Z,101364.84
2022-10-13T11:15:49.778Z,101367.00
2022-10-13T11:18:59.200Z,101363.69
2022-10-13T11:21:26.280Z,101358.06
2022-10-13T11:23:53.192Z,101352.50
2022-10-13T11:26:32.390Z,101356.31
2022-10-13T11:28:59.950Z,101358.41
2022-10-13T11:31:47.103Z,101355.94
2022-10-13T11:34:28.913Z,101346.78
2022-10-13T11:36:58.475Z,101348.19
2022-10-13T11:39:55.389Z,101346.41
2022-10-13T11:42:43.770Z,101338.28
2022-10-13T11:45:23.490Z,101338.94
2022-10-13T11:50:41.374Z,101331.19
2022-10-13T11:53:18.827Z,101337.06
2022-10-13T11:55:50.482Z,101341.44
2022-10-13T11:58:20.248Z,101335.22
2022-10-13T12:00:55.276Z,101336.84
2022-10-13T12:03:25.849Z,101331.06
2022-10-13T12:05:57.573Z,101327.63
2022-10-13T12:08:25.784Z,101329.00
2022-10-13T12:10:57.228Z,101331.97
2022-10-13T12:13:26.732Z,101329.06
2022-10-13T12:16:03.134Z,101323.56
2022-10-13T12:18:34.297Z,101318.38
2022-10-13T12:21:04.951Z,101318.56
2022-10-13T12:23:33.302Z,101314.00
2022-10-13T12:26:00.835Z,101321.41
2022-10-13T12:28:31.072Z,101322.53
2022-10-13T12:30:59.943Z,101323.19
2022-10-13T12:33:31.549Z,101325.66
2022-10-13T12:36:17.773Z,101320.59
2022-10-13T12:38:49.426Z,101322.59
2022-10-13T12:41:19.389Z,101325.19
2022-10-13T12:43:46.794Z,101331.75
2022-10-13T12:46:13.682Z,101327.09
2022-10-13T12:48:40.521Z,101323.13
2022-10-13T12:51:18.894Z,101327.50
2022-10-13T12:53:47.083Z,101327.22
2022-10-13T12:56:28.757Z,101318.13
2022-10-13T12:58:57.203Z,101317.03
2022-10-13T13:01:30.700Z,101323.50
2022-10-13T13:04:00.437Z,101319.66
2022-10-13T13:06:54.627Z,101316.66
2022-10-13T13:09:24.970Z,101319.72
2022-10-13T13:12:12.179Z,101317.06
2022-10-13T13:14:40.721Z,101316.19
2022-10-13T13:17:12.295Z,101313.75
2022-10-13T13:19:40.311Z,101322.75
2022-10-13T13:22:08.769Z,101311.91
2022-10-13T13:24:40.206Z,101317.81
2022-10-13T13:27:20.495Z,101315.31
2022-10-13T13:29:47.984Z,101313.56
2022-10-13T13:32:19.869Z,101312.66
2022-10-13T13:34:47.459Z,101316.13
2022-10-13T13:37:23.076Z,101312.91
2022-10-13T13:39:50.304Z,101311.97
2022-10-13T13:42:17.169Z,101305.25
2022-10-13T13:44:44.146Z,101313.41
2022-10-13T13:47:20.137Z,101311.00
2022-10-13T13:49:48.093Z,101317.41
2022-10-13T13:52:16.798Z,101318.09
2022-10-13T13:54:43.650Z,101314.34
2022-10-13T13:57:11.703Z,101312.31
2022-10-13T13:59:39.119Z,101308.81
2022-10-13T14:02:08.123Z,101300.66
2022-10-13T14:04:34.987Z,101307.97
2022-10-13T14:07:01.974Z,101306.50
2022-10-13T14:09:30.432Z,101298.69
2022-10-13T14:11:57.203Z,101300.59
2022-10-13T14:14:24.289Z,101302.47
2022-10-13T14:16:51.052Z,101297.13
2022-10-13T14:19:17.872Z,101290.22
2022-10-13T14:21:46.029Z,101294.31
2022-10-13T14:24:13.485Z,101292.31
2022-10-13T14:26:41.703Z,101289.31
2022-10-13T14:29:08.656Z,101290.22
2022-10-13T14:31:35.584Z,101290.50
2022-10-13T14:34:02.388Z,101292.72
2022-10-13T14:36:29.305Z,101295.53
2022-10-13T14:38:56.163Z,101289.25
2022-10-13T14:41:23.341Z,101277.16
2022-10-13T14:43:54.633Z,101272.31
2022-10-13T14:46:22.321Z,101277.38
2022-10-13T14:48:49.689Z,101275.41
2022-10-13T14:51:17.404Z,101266.81
2022-10-13T14:56:55.942Z,101267.56
2022-10-13T14:59:24.796Z,101268.28
2022-10-13T15:01:51.552Z,101272.78
2022-10-13T15:04:18.537Z,101270.31
2022-10-13T15:06:45.351Z,101267.38
2022-10-13T15:09:13.017Z,101267.63
2022-10-13T15:12:01.300Z,101266.97
2022-10-13T15:14:29.427Z,101269.94
2022-10-13T15:19:55.400Z,101272.84
2022-10-13T15:38:28.690Z,101264.03
2022-10-13T15:43:33.217Z,101257.47
2022-10-13T15:46:02.231Z,101257.88
2022-10-13T15:48:29.196Z,101258.97
2022-10-13T15:50:56.151Z,101261.50
2022-10-13T15:56:22.955Z,101259.47
2022-10-13T15:58:49.739Z,101257.78
2022-10-13T16:01:16.622Z,101254.50
2022-10-13T16:03:43.782Z,101258.97
2022-10-13T16:06:12.916Z,101258.06
2022-10-13T16:08:42.538Z,101254.81
2022-10-13T16:11:10.202Z,101258.06
2022-10-13T16:13:38.692Z,101254.28
2022-10-13T16:16:05.852Z,101253.84
2022-10-13T16:18:34.767Z,101249.84
2022-10-13T16:21:08.163Z,101261.19
2022-10-13T16:23:34.931Z,101256.81
2022-10-13T16:26:02.190Z,101257.69
2022-10-13T16:28:28.992Z,101254.50
2022-10-13T16:30:57.158Z,101246.94
2022-10-13T16:33:23.931Z,101253.72
2022-10-13T16:35:50.660Z,101255.28
2022-10-13T16:38:17.425Z,101253.31
2022-10-13T16:40:44.140Z,101246.56
2022-10-13T16:43:10.845Z,101256.94
2022-10-13T16:45:58.692Z,101256.88
2022-10-13T16:48:25.822Z,101261.38
2022-10-13T16:50:52.601Z,101259.38
2022-10-13T16:53:19.538Z,101264.28
2022-10-13T16:55:46.622Z,101260.66
2022-10-13T16:58:13.377Z,101257.75
2022-10-13T17:00:40.884Z,101254.94
2022-10-13T17:03:07.962Z,101260.88
2022-10-13T17:05:36.358Z,101259.03
2022-10-13T17:08:03.114Z,101259.50
2022-10-13T17:10:29.903Z,101267.56
2022-10-13T17:12:56.766Z,101269.09
2022-10-13T17:15:24.258Z,101268.28
2022-10-13T17:17:51.166Z,101269.50
2022-10-13T17:20:18.282Z,101267.03
2022-10-13T17:22:46.382Z,101266.88
2022-10-13T17:25:13.579Z,101270.13
2022-10-13T17:27:40.443Z,101272.88
2022-10-13T17:30:08.269Z,101280.72
2022-10-13T17:32:37.553Z,101268.72
2022-10-13T17:35:04.903Z,101273.34
2022-10-13T17:37:31.773Z,101273.41
2022-10-13T17:39:59.984Z,101271.72
2022-10-13T17:42:28.719Z,101272.88
2022-10-13T17:44:55.462Z,101271.97
2022-10-13T17:47:22.675Z,101272.13
2022-10-13T17:49:50.014Z,101276.97
2022-10-13T17:52:16.777Z,101275.75
2022-10-13T17:54:43.592Z,101273.78
2022-10-13T17:57:11.768Z,101264.81
2022-10-13T17:59:38.543Z,101275.00
2022-10-13T18:02:05.367Z,101266.28
2022-10-13T18:04:32.191Z,101266.50
2022-10-13T18:06:58.966Z,101267.97
2022-10-13T18:09:25.801Z,101267.50
2022-10-13T18:11:53.594Z,101267.97
2022-10-13T18:14:23.478Z,101278.72
2022-10-13T18:16:50.591Z,101274.53
2022-10-13T18:19:17.452Z,101273.47
2022-10-13T18:21:44.368Z,101262.63
2022-10-13T18:24:11.818Z,101253.28
2022-10-13T18:26:39.106Z,101255.75
2022-10-13T18:29:07.971Z,101257.41
2022-10-13T18:31:38.295Z,101248.13
2022-10-13T18:34:07.815Z,101250.19
2022-10-13T18:36:36.485Z,101251.19
2022-10-13T18:39:06.349Z,101255.47
2022-10-13T18:41:35.513Z,101247.50
2022-10-13T18:44:03.981Z,101249.56
2022-10-13T18:46:30.795Z,101260.00
2022-10-13T18:48:58.892Z,101264.09
2022-10-13T18:51:25.896Z,101265.75
2022-10-13T18:53:52.846Z,101266.09
2022-10-13T18:56:22.496Z,101280.63
2022-10-13T19:01:24.683Z,101287.78
2022-10-13T19:03:53.036Z,101291.88
2022-10-13T19:06:27.141Z,101288.50
2022-10-13T19:08:56.189Z,101288.16
2022-10-13T19:11:23.974Z,101297.63
2022-10-13T19:13:51.688Z,101292.88
2022-10-13T19:16:20.703Z,101297.34
2022-10-13T19:18:48.784Z,101292.00
2022-10-13T19:21:16.313Z,101284.41
2022-10-13T19:23:44.514Z,101287.25
2022-10-13T19:26:15.126Z,101287.97
2022-10-13T19:28:42.506Z,101282.44
2022-10-13T19:31:10.394Z,101284.06
2022-10-13T19:33:43.492Z,101279.97
2022-10-13T19:36:19.314Z,101281.53
2022-10-13T19:38:47.478Z,101279.81
2022-10-13T19:41:14.554Z,101284.47
2022-10-13T19:43:41.282Z,101283.28
2022-10-13T19:46:08.609Z,101281.00
2022-10-13T19:48:35.638Z,101277.28
2022-10-13T19:51:04.655Z,101272.31
2022-10-13T19:53:31.451Z,101278.03
2022-10-13T19:55:59.584Z,101274.75
2022-10-13T19:58:26.444Z,101273.47
2022-10-13T20:00:53.242Z,101263.78
2022-10-13T20:03:20.124Z,101259.78
2022-10-13T20:05:46.777Z,101258.31
2022-10-13T20:08:13.886Z,101261.41
2022-10-13T20:10:42.130Z,101263.09
2022-10-13T20:13:11.533Z,101249.75
2022-10-13T20:15:39.937Z,101252.94
2022-10-13T20:18:08.379Z,101252.94
2022-10-13T20:20:35.780Z,101250.59
2022-10-13T20:23:02.505Z,101253.00
2022-10-13T20:25:29.262Z,101252.94
2022-10-13T20:27:56.146Z,101259.38
2022-10-13T20:30:24.292Z,101264.47
2022-10-13T20:32:51.346Z,101255.19
2022-10-13T20:35:18.210Z,101262.22
2022-10-13T20:37:44.977Z,101253.91
2022-10-13T20:40:12.066Z,101258.38
2022-10-13T20:42:39.293Z,101273.28
2022-10-13T20:45:07.119Z,101265.03
2022-10-13T20:47:35.191Z,101267.75
2022-10-13T20:50:02.007Z,101259.50
2022-10-13T20:52:28.814Z,101258.03
2022-10-13T20:54:55.558Z,101252.47
2022-10-13T20:57:22.630Z,101249.72
2022-10-13T20:59:49.972Z,101262.91
2022-10-13T21:02:17.122Z,101262.75
2022-10-13T21:04:45.402Z,101254.53
2022-10-13T21:07:12.129Z,101250.25
2022-10-13T21:09:38.987Z,101253.22
2022-10-13T21:12:06.278Z,101254.63
2022-10-13T21:14:33.062Z,101247.34
2022-10-13T21:17:00.004Z,101247.19
2022-10-13T21:19:29.149Z,101239.78
2022-10-13T21:21:57.488Z,101241.25
2022-10-13T21:24:24.232Z,101248.25
2022-10-13T21:26:51.052Z,101247.22
2022-10-13T21:29:17.808Z,101252.06
2022-10-13T21:31:44.610Z,101255.22
2022-10-13T21:34:12.401Z,101262.50
2022-10-13T21:36:43.971Z,101251.53
2022-10-13T21:39:12.210Z,101250.03
2022-10-13T21:41:39.188Z,101259.50
2022-10-13T21:44:05.978Z,101254.59
2022-10-13T21:46:34.961Z,101256.50
2022-10-13T21:49:04.857Z,101254.06
2022-10-13T21:51:34.061Z,101257.31
2022-10-13T21:54:03.406Z,101252.88
2022-10-13T21:56:32.971Z,101244.41
2022-10-13T21:59:00.740Z,101237.56
2022-10-13T22:01:27.896Z,101235.28
2022-10-13T22:03:56.426Z,101226.63
2022-10-13T22:06:24.096Z,101224.69
2022-10-13T22:08:53.500Z,101231.19
2022-10-13T22:11:21.407Z,101231.59
2022-10-13T22:13:49.841Z,101219.41
2022-10-13T22:16:19.004Z,101217.31
2022-10-13T22:18:45.861Z,101227.44
2022-10-13T22:21:15.113Z,101225.56
2022-10-13T22:23:42.390Z,101230.03
2022-10-13T22:26:09.519Z,101230.03
2022-10-13T22:28:37.578Z,101228.75
2022-10-13T22:31:06.909Z,101227.56
2022-10-13T22:33:35.974Z,101222.22
2022-10-13T22:36:07.122Z,101222.00
2022-10-13T22:38:34.227Z,101225.19
2022-10-13T22:41:02.017Z,101219.63
2022-10-13T22:43:29.980Z,101227.75
2022-10-13T22:45:56.834Z,101225.28
2022-10-13T22:48:24.941Z,101219.69
2022-10-13T22:50:51.755Z,101217.56
2022-10-13T22:53:18.479Z,101220.03
2022-10-13T22:55:45.416Z,101217.19
2022-10-13T22:58:12.520Z,101207.38
2022-10-13T23:00:42.451Z,101211.47
2022-10-13T23:03:14.128Z,101201.16
2022-10-13T23:05:43.178Z,101202.72
2022-10-13T23:08:11.196Z,101200.78
2022-10-13T23:10:37.968Z,101197.53
2022-10-13T23:13:05.608Z,101202.78
2022-10-13T23:15:32.439Z,101197.66
2022-10-13T23:17:59.202Z,101210.59
2022-10-13T23:20:26.136Z,101202.03
2022-10-13T23:22:54.296Z,101191.72
2022-10-13T23:25:21.339Z,101183.66
2022-10-13T23:27:50.582Z,101174.53
2022-10-13T23:30:17.578Z,101167.69
2022-10-13T23:32:44.365Z,101157.47
2022-10-13T23:35:11.339Z,101150.78
2022-10-13T23:37:38.315Z,101154.44
2022-10-13T23:40:07.742Z,101152.19
2022-10-13T23:42:34.653Z,101156.88
2022-10-13T23:45:01.620Z,101149.44
2022-10-13T23:47:28.354Z,101151.97
2022-10-13T23:49:55.196Z,101138.75
2022-10-13T23:52:22.257Z,101130.03
2022-10-13T23:54:49.122Z,101124.41
2022-10-13T23:57:22.409Z,101124.69
2022-10-13T23:59:49.439Z,101118.69
